Metropolis, IL

9:48 AM CST on February 06, 2016 (GMT -0600)
Grahamville | | Change Station
CLOSE
Current Station
Personal Weather Station
Location: West Paducah, KY
Elevation: 390 ft
Nearby Weather Stations
Active Advisory: Flood Warning

Elev 390 ft 37.11 °N, 88.78 °W | Updated 8 minutes ago

Clear
Clear
43.1 °F
Feels Like 43 °F
N
3.0
Wind Variable Wind from WSW
Gusts 6.0 mph

Today
High -- | Low -- °F
--% Chance of Precip.
Yesterday
High -- | Low -- °F
Precip. -- in
Pressure 30.38 in
Visibility 10.0 miles
Clouds Clear
Windchill 43 °F
Dew Point 27 °F
Humidity 53%
Rainfall 0.00 in
Snow Depth Not available.
6:53 AM 5:24 PM
Waning Crescent, 5% visible
METAR KM30 061535Z AUTO 23006KT 10SM CLR 06/M01 A3038 RMK AO2 T00621015
Pressure 30.38 in
Visibility 10.0 miles
Clouds Clear
Windchill 43 °F
Dew Point 27 °F
Humidity 53%
Rainfall 0.00 in
Snow Depth Not available.
6:53 AM 5:24 PM
Waning Crescent, 5% visible
METAR KM30 061535Z AUTO 23006KT 10SM CLR 06/M01 A3038 RMK AO2 T00621015

10-Day Weather Forecast

Almanac

Astronomy

Feb. 06, 2016 Rise Set
Actual Time
Civil Twilight
Nautical Twilight
Astronomical Twilight
Moon
Length of Visible Light
Length of Day
Tomorrow will be .
, % of the Moon is Illuminated

Today's Extremes

State Highs State Lows

Community

WunderPhotos

Upload Photos

1,890,987 photos uploaded!

WunderBlog® & News

Nearby

Air Quality

  Air Quality AQ Index Pollutant
Not available.

Snow Depth

Station Depth Elevation

Earthquake Activity

City Distance Mag. Time & Date
Minimum magnitude displayed is 2.5.

Coastal Water Temperatures

Place Temperature

Stations

Nearby Weather Stations

Station Location Temp. Windchill Dew Point Humidity Wind Precip. Elev Updated Type
                   

Watches & Warnings

Flood Warning
Issued: 9:18 PM CST Feb. 5, 2016 – National Weather Service

The Flood Warning continues for
the Ohio River at Grand Chain dam
* from Monday afternoon until further notice.
* At 6:00 PM Friday the stage was 38.0 feet.
* Flood stage is 42.0 feet.
* Minor flooding is forecast.
* Impact... at 42.0 feet... this will cause minor flooding of mainly low
lying areas.


Lat... Lon 3727 8908 3717 8916 3709 8907 3714 8888
      3727 8884